Time;durP1;ratioP1;P1;durP2;ratioP2;P2;SDS_P1;SDS_P2;PMS_P1;PMS_P2;Temp;Humidity;BMP_temperature;BMP_pressure;BME280_temperature;BME280_humidity;BME280_pressure;Samples;Min_cycle;Max_cycle;Signal;HPM_P1;HPM_P2
2022/06/03 00:02:09;;;;;;;8.63;6.00;;;;;;;21.85;nan;95349.41;5048230;28;20198;-67
2022/06/03 00:04:54;;;;;;;11.48;6.50;;;;;;;21.68;nan;95354.06;5067803;28;20203;-64
2022/06/03 00:07:38;;;;;;;11.20;6.88;;;;;;;21.53;nan;95349.19;5065212;28;20565;-67
2022/06/03 00:10:21;;;;;;;10.23;6.75;;;;;;;21.86;nan;95345.88;5065471;28;20718;-65
2022/06/03 00:12:58;;;;;;;10.45;7.28;;;;;;;22.16;nan;95345.41;5066014;28;20201;-65
2022/06/03 00:15:42;;;;;;;10.55;6.40;;;;;;;22.20;nan;95342.47;5065258;28;20201;-68
2022/06/03 00:18:38;;;;;;;16.00;6.97;;;;;;;22.02;nan;95346.44;5072300;28;20196;-66
2022/06/03 00:21:08;;;;;;;9.32;6.65;;;;;;;21.52;nan;95343.19;5107651;28;20205;-68
2022/06/03 00:24:09;;;;;;;12.52;6.45;;;;;;;21.73;nan;95344.22;5089865;28;20199;-66
2022/06/03 00:27:17;;;;;;;11.60;6.35;;;;;;;21.90;nan;95342.13;5068307;28;20202;-68
2022/06/03 00:30:02;;;;;;;11.38;6.18;;;;;;;21.81;nan;95342.81;5083728;28;20233;-65
2022/06/03 00:32:54;;;;;;;9.32;5.60;;;;;;;21.67;nan;95342.06;5088614;28;20217;-65
2022/06/03 00:35:42;;;;;;;8.90;5.60;;;;;;;21.85;nan;95344.22;5068426;28;20557;-65
2022/06/03 00:38:34;;;;;;;8.25;7.45;;;;;;;21.50;nan;95339.88;5068655;28;20295;-65
2022/06/03 00:41:26;;;;;;;10.63;8.68;;;;;;;21.33;nan;95348.00;5068511;28;20202;-66
2022/06/03 00:44:18;;;;;;;7.32;6.72;;;;;;;21.52;nan;95340.59;5079761;28;20198;-65
2022/06/03 00:47:04;;;;;;;12.13;8.18;;;;;;;21.57;nan;95346.25;5088503;28;20202;-69
2022/06/03 00:49:52;;;;;;;8.90;6.65;;;;;;;21.49;nan;95347.75;5071246;28;20237;-66
2022/06/03 00:52:52;;;;;;;7.97;7.18;;;;;;;21.59;nan;95356.47;5068824;28;20202;-66
2022/06/03 00:55:43;;;;;;;10.57;6.32;;;;;;;21.76;nan;95350.09;5060753;28;20225;-65
2022/06/03 00:58:32;;;;;;;5.38;4.88;;;;;;;21.43;nan;95338.66;5067538;28;20197;-68
2022/06/03 01:01:10;;;;;;;10.93;7.82;;;;;;;21.54;nan;95346.47;5077522;28;20255;-66
2022/06/03 01:03:49;;;;;;;6.78;5.93;;;;;;;21.67;nan;95336.88;5078267;28;20217;-66
2022/06/03 01:06:27;;;;;;;7.90;5.90;;;;;;;21.91;nan;95336.03;5078569;28;20221;-65
2022/06/03 01:09:15;;;;;;;7.13;4.88;;;;;;;21.91;nan;95338.63;5077563;28;20757;-68
2022/06/03 01:12:00;;;;;;;8.07;5.97;;;;;;;21.95;nan;95340.88;5079112;28;20580;-66
2022/06/03 01:14:37;;;;;;;9.55;5.93;;;;;;;21.74;nan;95342.44;5078119;28;20197;-66
2022/06/03 01:17:12;;;;;;;12.80;5.95;;;;;;;21.79;nan;95334.31;5078260;28;20197;-68
2022/06/03 01:19:55;;;;;;;14.23;8.98;;;;;;;22.05;nan;95335.84;5078037;28;20254;-65
2022/06/03 01:22:51;;;;;;;21.90;12.93;;;;;;;22.19;nan;95337.41;5078480;28;20202;-68
2022/06/03 01:25:36;;;;;;;11.85;7.28;;;;;;;22.25;nan;95331.78;5068703;28;20318;-66
2022/06/03 01:28:36;;;;;;;9.18;6.28;;;;;;;22.20;nan;95329.53;5077793;28;20270;-67
2022/06/03 01:31:39;;;;;;;7.03;6.32;;;;;;;22.20;nan;95329.53;5077101;28;20294;-66
2022/06/03 01:34:24;;;;;;;7.15;6.25;;;;;;;22.08;nan;95334.78;5077709;28;20205;-66
2022/06/03 01:37:09;;;;;;;7.50;6.30;;;;;;;21.62;nan;95333.81;5078409;28;20214;-67
2022/06/03 01:40:02;;;;;;;12.25;6.50;;;;;;;21.48;nan;95326.22;5077116;28;20196;-65
2022/06/03 01:42:59;;;;;;;9.27;6.25;;;;;;;21.52;nan;95325.09;5077814;28;20229;-65
2022/06/03 01:45:55;;;;;;;5.63;5.13;;;;;;;21.27;nan;95330.38;5078415;28;20329;-66
2022/06/03 01:48:59;;;;;;;10.38;6.35;;;;;;;21.12;nan;95334.00;5077469;28;20202;-65
2022/06/03 01:51:51;;;;;;;13.10;6.35;;;;;;;21.05;nan;95344.75;5077933;28;20198;-66
2022/06/03 01:54:54;;;;;;;11.40;6.20;;;;;;;21.00;nan;95351.19;5077520;28;20722;-66
2022/06/03 01:57:42;;;;;;;7.00;6.38;;;;;;;21.20;nan;95342.03;5078369;28;20197;-65
2022/06/03 02:00:27;;;;;;;6.82;6.13;;;;;;;21.42;nan;95347.34;5077493;28;20271;-66
2022/06/03 02:03:25;;;;;;;15.07;7.57;;;;;;;21.41;nan;95343.13;5077788;28;20314;-66
2022/06/03 02:06:21;;;;;;;9.80;6.13;;;;;;;20.85;nan;95345.31;5077765;28;21512;-66
2022/06/03 02:09:17;;;;;;;14.00;7.07;;;;;;;20.90;nan;95345.84;5077021;28;20949;-68
2022/06/03 02:12:06;;;;;;;6.53;5.88;;;;;;;21.11;nan;95351.25;5077846;28;20748;-66
2022/06/03 02:15:09;;;;;;;6.63;6.13;;;;;;;21.29;nan;95346.56;5064122;28;20700;-65
2022/06/03 02:18:23;;;;;;;12.20;6.75;;;;;;;20.55;nan;95348.25;5072000;28;20205;-65
2022/06/03 02:21:26;;;;;;;11.05;6.63;;;;;;;19.83;nan;95353.97;5077271;28;20237;-65
2022/06/03 02:24:24;;;;;;;7.30;6.45;;;;;;;19.53;nan;95349.88;5052244;28;20691;-66
2022/06/03 02:27:32;;;;;;;9.65;5.57;;;;;;;19.42;nan;95352.28;5077081;28;20208;-65
2022/06/03 02:30:25;;;;;;;7.82;6.13;;;;;;;19.12;nan;95354.19;5076790;28;20711;-65
2022/06/03 02:33:34;;;;;;;9.40;5.95;;;;;;;19.10;nan;95353.47;5076702;28;20681;-67
2022/06/03 02:36:34;;;;;;;9.27;5.82;;;;;;;19.78;nan;95354.28;5076593;28;20201;-66
2022/06/03 02:39:10;;;;;;;6.57;5.97;;;;;;;19.68;nan;95359.19;5076346;28;20902;-69
2022/06/03 02:42:08;;;;;;;9.68;6.38;;;;;;;19.54;nan;95361.03;5076443;28;21318;-66
2022/06/03 02:44:53;;;;;;;8.57;5.95;;;;;;;19.45;nan;95352.09;5076724;28;20850;-68
2022/06/03 02:47:53;;;;;;;9.48;5.93;;;;;;;19.51;nan;95361.22;5077054;28;20243;-66
2022/06/03 02:50:54;;;;;;;9.30;6.47;;;;;;;19.55;nan;95366.03;5042379;28;20732;-66
2022/06/03 02:54:04;;;;;;;6.13;5.50;;;;;;;19.38;nan;95366.28;5033068;28;20197;-66
2022/06/03 02:56:51;;;;;;;7.90;5.68;;;;;;;19.10;nan;95366.34;5076317;28;20689;-66
2022/06/03 02:59:50;;;;;;;8.00;5.18;;;;;;;19.02;nan;95370.25;5076232;28;20201;-66
2022/06/03 03:02:36;;;;;;;6.53;5.93;;;;;;;18.96;nan;95369.78;5004685;28;20205;-68
2022/06/03 03:05:33;;;;;;;5.70;5.32;;;;;;;18.93;nan;95369.97;5076057;28;20229;-66
2022/06/03 03:08:42;;;;;;;12.73;5.30;;;;;;;18.95;nan;95366.38;5074710;28;20207;-67
2022/06/03 03:11:31;;;;;;;8.63;5.28;;;;;;;19.18;nan;95370.09;5074717;28;20216;-67
2022/06/03 03:14:26;;;;;;;7.65;5.20;;;;;;;19.80;nan;95361.88;5074751;28;20225;-68
2022/06/03 03:17:08;;;;;;;5.78;4.95;;;;;;;20.24;nan;95362.41;5074725;28;20237;-67
2022/06/03 03:20:05;;;;;;;9.52;6.85;;;;;;;20.03;nan;95368.97;5074425;28;20290;-65
2022/06/03 03:22:58;;;;;;;8.18;6.10;;;;;;;19.67;nan;95367.84;5074990;28;20583;-66
2022/06/03 03:25:51;;;;;;;8.65;6.45;;;;;;;20.06;nan;95373.91;5076550;28;20229;-67
2022/06/03 03:28:54;;;;;;;5.97;5.25;;;;;;;21.32;nan;95387.72;5072536;28;20290;-66
2022/06/03 03:31:37;;;;;;;9.57;6.13;;;;;;;22.61;nan;95383.38;5073082;28;20251;-67
2022/06/03 03:34:19;;;;;;;11.93;5.70;;;;;;;23.49;nan;95378.28;5075744;28;20296;-69
2022/06/03 03:37:24;;;;;;;14.02;6.18;;;;;;;24.36;nan;95384.22;5076473;28;20298;-66
2022/06/03 03:40:33;;;;;;;7.10;5.05;;;;;;;25.25;nan;95383.53;5076402;28;20201;-67
2022/06/03 03:43:45;;;;;;;12.15;7.25;;;;;;;25.94;nan;95390.56;5075964;28;20824;-66
2022/06/03 03:46:44;;;;;;;8.50;5.78;;;;;;;25.81;nan;95389.97;5076649;28;20668;-65
2022/06/03 03:49:40;;;;;;;14.73;7.40;;;;;;;25.02;nan;95387.31;5075878;28;20261;-66
2022/06/03 03:52:40;;;;;;;10.30;7.50;;;;;;;24.65;nan;95393.00;5077925;28;20194;-66
2022/06/03 03:55:49;;;;;;;20.77;10.65;;;;;;;25.50;nan;95397.84;5080398;28;20294;-66
2022/06/03 03:58:52;;;;;;;21.33;14.65;;;;;;;26.19;nan;95397.00;5053524;28;20194;-65
2022/06/03 04:01:52;;;;;;;12.88;10.27;;;;;;;26.54;nan;95401.63;5079696;28;20205;-67
2022/06/03 04:04:48;;;;;;;13.95;8.30;;;;;;;26.79;nan;95395.78;5076814;28;20210;-65
2022/06/03 04:08:00;;;;;;;12.07;7.78;;;;;;;27.03;nan;95388.31;5079540;28;20642;-65
2022/06/03 04:11:01;;;;;;;13.77;7.32;;;;;;;27.07;nan;95384.47;5043961;28;20241;-68
2022/06/03 04:14:06;;;;;;;15.32;7.28;;;;;;;26.71;nan;95385.28;5079260;28;20678;-65
2022/06/03 04:17:08;;;;;;;33.42;20.48;;;;;;;26.34;nan;95383.41;5080077;28;20209;-66
2022/06/03 04:20:00;;;;;;;17.27;13.35;;;;;;;26.06;nan;95389.44;5079323;28;20214;-68
2022/06/03 04:23:00;;;;;;;33.50;20.85;;;;;;;25.68;nan;95374.63;5079605;28;20263;-66
2022/06/03 04:26:08;;;;;;;26.88;15.85;;;;;;;25.37;nan;95392.09;5078285;28;20229;-65
2022/06/03 04:28:54;;;;;;;17.92;8.15;;;;;;;25.46;nan;95388.69;5079144;28;20279;-66
2022/06/03 04:31:53;;;;;;;16.27;7.60;;;;;;;25.41;nan;95378.69;5079910;28;20236;-68
2022/06/03 04:34:56;;;;;;;16.50;11.70;;;;;;;25.52;nan;95390.72;5078751;28;20210;-66
2022/06/03 04:38:08;;;;;;;21.73;8.35;;;;;;;25.37;nan;95399.88;5079394;28;20253;-66
2022/06/03 04:41:04;;;;;;;7.88;6.85;;;;;;;25.75;nan;95405.19;4975879;28;20208;-66
2022/06/03 04:44:09;;;;;;;20.92;6.90;;;;;;;26.10;nan;95401.22;5076424;28;20209;-67
2022/06/03 04:47:19;;;;;;;9.55;6.25;;;;;;;26.22;nan;95417.56;5054976;28;20198;-66
2022/06/03 04:50:27;;;;;;;10.88;7.38;;;;;;;26.46;nan;95420.59;5078559;28;20648;-66
2022/06/03 04:53:34;;;;;;;10.63;6.97;;;;;;;26.81;nan;95424.34;5078691;28;20206;-68
2022/06/03 04:56:30;;;;;;;26.77;8.27;;;;;;;26.03;nan;95418.34;5079472;28;20258;-68
2022/06/03 04:59:31;;;;;;;18.10;7.15;;;;;;;25.33;nan;95427.13;5078613;28;20206;-66
2022/06/03 05:02:41;;;;;;;13.50;6.85;;;;;;;25.34;nan;95428.75;5075110;28;20197;-66
2022/06/03 05:05:56;;;;;;;16.05;7.35;;;;;;;25.14;nan;95434.88;5078482;28;20239;-67
2022/06/03 05:09:08;;;;;;;12.55;6.63;;;;;;;25.57;nan;95437.19;5078175;28;20233;-67
2022/06/03 05:12:06;;;;;;;8.23;6.10;;;;;;;26.35;nan;95441.56;5015077;28;20237;-64
2022/06/03 05:15:20;;;;;;;14.10;6.53;;;;;;;27.30;nan;95439.69;5078503;28;20610;-66
2022/06/03 05:18:28;;;;;;;12.95;5.45;;;;;;;29.97;nan;95428.81;5078028;28;20660;-69
2022/06/03 05:21:37;;;;;;;13.68;6.07;;;;;;;32.83;nan;95425.91;5078435;28;20202;-67
2022/06/03 05:24:41;;;;;;;13.10;5.53;;;;;;;35.42;nan;95431.09;5077856;28;20290;-67
2022/06/03 05:27:41;;;;;;;9.57;4.68;;;;;;;36.17;nan;95424.88;5078598;28;20276;-68
2022/06/03 05:30:30;;;;;;;16.23;5.22;;;;;;;37.31;nan;95427.38;5078188;28;20261;-68
2022/06/03 05:33:26;;;;;;;15.18;5.45;;;;;;;38.21;nan;95434.38;5078307;28;20217;-68
2022/06/03 05:36:23;;;;;;;7.32;6.38;;;;;;;38.37;nan;95428.53;5078269;28;20695;-68
2022/06/03 05:39:35;;;;;;;14.07;6.35;;;;;;;38.23;nan;95442.94;5077160;28;20365;-67
2022/06/03 05:42:40;;;;;;;11.30;5.40;;;;;;;38.00;nan;95435.50;5078429;28;20229;-67
2022/06/03 05:45:53;;;;;;;15.75;5.63;;;;;;;37.82;nan;95434.56;5052408;28;20205;-69
2022/06/03 05:48:25;;;;;;;11.85;4.88;;;;;;;38.27;nan;95436.19;4994808;28;20201;-67
2022/06/03 05:51:01;;;;;;;11.82;6.85;;;;;;;37.83;nan;95436.19;4994437;28;20236;-70
2022/06/03 05:53:38;;;;;;;7.70;6.95;;;;;;;38.23;nan;95432.34;5046041;28;20201;-68
2022/06/03 05:56:33;;;;;;;8.18;5.90;;;;;;;37.88;nan;95431.88;5077797;28;20197;-65
2022/06/03 05:59:07;;;;;;;11.95;5.53;;;;;;;37.18;nan;95425.53;5077508;28;20209;-66
2022/06/03 06:01:44;;;;;;;11.02;5.75;;;;;;;36.66;nan;95418.44;5077992;28;20209;-67
2022/06/03 06:04:22;;;;;;;14.55;6.50;;;;;;;37.61;nan;95409.94;5077790;28;20213;-69
2022/06/03 06:07:08;;;;;;;6.22;5.60;;;;;;;37.14;nan;95406.56;5077787;28;20304;-68
2022/06/03 06:09:52;;;;;;;9.52;6.50;;;;;;;37.22;nan;95399.47;5077508;28;20202;-66
2022/06/03 06:12:44;;;;;;;9.80;5.72;;;;;;;37.18;nan;95403.50;5077465;28;20666;-66
2022/06/03 06:15:32;;;;;;;9.25;6.38;;;;;;;37.09;nan;95398.47;5076799;28;20554;-67
2022/06/03 06:18:09;;;;;;;11.20;5.63;;;;;;;36.61;nan;95399.72;5077154;28;20205;-70
2022/06/03 06:20:49;;;;;;;8.70;5.43;;;;;;;35.76;nan;95396.66;5077080;28;20197;-66
2022/06/03 06:23:20;;;;;;;8.18;6.57;;;;;;;35.91;nan;95388.59;5077050;28;20204;-67
2022/06/03 06:26:15;;;;;;;9.60;6.82;;;;;;;35.60;nan;95394.38;5077380;28;20241;-66
2022/06/03 06:29:04;;;;;;;8.00;5.43;;;;;;;34.61;nan;95401.69;5076789;28;20198;-66
2022/06/03 06:31:55;;;;;;;7.28;5.60;;;;;;;34.56;nan;95404.06;5077694;28;20230;-69
2022/06/03 06:34:42;;;;;;;10.20;4.90;;;;;;;34.57;nan;95383.78;5076642;28;20980;-69
2022/06/03 06:37:40;;;;;;;9.93;6.25;;;;;;;34.75;nan;95402.59;5076544;28;20220;-67
2022/06/03 06:40:17;;;;;;;18.77;9.15;;;;;;;34.62;nan;95391.94;5076715;28;21054;-66
2022/06/03 06:43:00;;;;;;;14.55;6.88;;;;;;;34.27;nan;95383.09;5077073;28;20205;-67
2022/06/03 06:45:40;;;;;;;9.10;5.60;;;;;;;34.06;nan;95386.56;5077203;28;20247;-66
2022/06/03 06:48:17;;;;;;;7.03;5.35;;;;;;;33.63;nan;95397.03;5076827;28;20201;-67
2022/06/03 06:50:53;;;;;;;14.63;7.20;;;;;;;33.49;nan;95387.31;5076806;28;20325;-67
2022/06/03 06:53:33;;;;;;;15.25;7.65;;;;;;;33.30;nan;95370.28;5076275;28;20201;-67
2022/06/03 06:56:10;;;;;;;13.68;7.22;;;;;;;33.28;nan;95387.25;5076557;28;20312;-68
2022/06/03 06:58:45;;;;;;;17.25;6.30;;;;;;;33.21;nan;95381.03;5076471;28;20198;-67
2022/06/03 07:01:17;;;;;;;5.32;4.82;;;;;;;32.94;nan;95385.94;5076579;28;20205;-66
2022/06/03 07:04:00;;;;;;;6.75;4.90;;;;;;;32.88;nan;95381.44;5076362;28;20205;-66
2022/06/03 07:06:36;;;;;;;8.80;5.65;;;;;;;32.68;nan;95385.53;5074594;28;20194;-66
2022/06/03 07:09:27;;;;;;;90.40;64.05;;;;;;;32.46;nan;95390.66;5076142;28;20573;-66
2022/06/03 07:11:59;;;;;;;52.08;33.83;;;;;;;32.17;nan;95376.59;5076518;28;20225;-67
2022/06/03 07:14:30;;;;;;;9.20;6.78;;;;;;;32.24;nan;95383.63;5076779;28;20233;-66
2022/06/03 07:20:06;;;;;;;30.42;12.07;;;;;;;32.04;nan;95378.00;5076060;28;20591;-66
2022/06/03 07:22:44;;;;;;;6.05;4.82;;;;;;;32.18;nan;95378.22;5076287;28;20208;-66
2022/06/03 07:25:23;;;;;;;8.30;5.75;;;;;;;31.87;nan;95375.66;5075854;28;20229;-67
2022/06/03 07:27:57;;;;;;;10.85;8.15;;;;;;;31.77;nan;95376.69;5075813;28;20201;-66
2022/06/03 07:30:33;;;;;;;9.35;8.45;;;;;;;31.58;nan;95379.75;5076117;28;20232;-67
2022/06/03 07:33:10;;;;;;;12.88;5.68;;;;;;;31.50;nan;95377.16;5076719;28;20210;-68
2022/06/03 07:35:45;;;;;;;6.60;5.38;;;;;;;31.77;nan;95378.50;5075578;28;20201;-66
2022/06/03 07:38:21;;;;;;;8.75;5.07;;;;;;;31.94;nan;95376.59;5076624;28;20224;-66
2022/06/03 07:40:54;;;;;;;16.65;10.95;;;;;;;32.01;nan;95377.53;5075947;28;20612;-67
2022/06/03 07:43:29;;;;;;;12.90;8.57;;;;;;;32.05;nan;95389.34;5076412;28;20917;-67
2022/06/03 07:45:59;;;;;;;11.43;8.05;;;;;;;31.63;nan;95387.94;5075863;28;20616;-66
2022/06/03 07:48:32;;;;;;;10.82;6.40;;;;;;;31.40;nan;95389.69;5076510;28;20572;-67
2022/06/03 07:51:05;;;;;;;10.82;6.40;;;;;;;31.08;nan;95394.03;5075763;28;20225;-68
2022/06/03 07:53:43;;;;;;;8.77;4.95;;;;;;;30.88;nan;95395.41;5076337;28;21517;-67
2022/06/03 07:56:10;;;;;;;6.10;4.93;;;;;;;31.23;nan;95403.88;5075913;28;20745;-66
2022/06/03 07:58:39;;;;;;;10.20;5.88;;;;;;;31.44;nan;95396.22;5075794;28;20198;-67
2022/06/03 08:01:07;;;;;;;12.02;6.80;;;;;;;31.81;nan;95402.63;5075061;28;20206;-67
2022/06/03 08:03:38;;;;;;;6.78;5.93;;;;;;;31.53;nan;95395.19;5076347;28;20266;-68
2022/06/03 08:06:08;;;;;;;8.60;5.47;;;;;;;31.15;nan;95402.09;5075483;28;21082;-67
2022/06/03 08:11:31;;;;;;;8.60;5.18;;;;;;;30.87;nan;95398.22;5075484;28;20256;-70
2022/06/03 08:14:00;;;;;;;9.02;5.30;;;;;;;30.65;nan;95399.72;5075387;28;20999;-67
2022/06/03 08:16:33;;;;;;;6.95;5.40;;;;;;;30.43;nan;95409.06;5076276;28;20209;-71
2022/06/03 08:19:04;;;;;;;8.80;5.50;;;;;;;30.35;nan;95407.25;5075608;28;20201;-69
2022/06/03 08:21:38;;;;;;;16.75;7.45;;;;;;;30.66;nan;95406.63;5075615;28;20673;-68
2022/06/03 08:24:07;;;;;;;10.80;6.20;;;;;;;30.32;nan;95414.63;5074881;28;20328;-66
2022/06/03 08:26:35;;;;;;;5.32;4.80;;;;;;;30.19;nan;95404.63;5075732;28;20209;-66
2022/06/03 08:29:13;;;;;;;15.52;6.03;;;;;;;30.13;nan;95414.94;5075430;28;20228;-66
2022/06/03 08:31:41;;;;;;;15.73;5.18;;;;;;;29.89;nan;95410.47;5075913;28;20312;-68
2022/06/03 08:34:18;;;;;;;5.35;4.32;;;;;;;29.75;nan;95420.56;5074915;28;20736;-66
2022/06/03 08:36:44;;;;;;;6.40;4.60;;;;;;;29.23;nan;95419.88;5075570;28;20229;-67
2022/06/03 08:39:17;;;;;;;8.13;5.50;;;;;;;28.38;nan;95404.94;5076854;28;20198;-69
2022/06/03 08:41:58;;;;;;;6.25;5.65;;;;;;;28.27;nan;95420.84;5079445;28;20573;-68
2022/06/03 08:44:39;;;;;;;8.02;5.00;;;;;;;29.16;nan;95412.81;5078823;28;20206;-67
2022/06/03 08:47:12;;;;;;;6.85;4.88;;;;;;;29.85;nan;95417.00;5079160;28;20262;-70
2022/06/03 08:50:02;;;;;;;5.22;4.78;;;;;;;30.02;nan;95413.44;5078831;28;20206;-68
2022/06/03 08:52:47;;;;;;;13.57;5.60;;;;;;;30.05;nan;95416.56;5078566;28;20318;-68
2022/06/03 08:55:36;;;;;;;6.25;5.35;;;;;;;30.37;nan;95414.97;5078977;28;20279;-69
2022/06/03 08:58:13;;;;;;;5.45;4.03;;;;;;;30.79;nan;95423.47;5078305;28;20287;-68
2022/06/03 09:00:54;;;;;;;8.88;4.97;;;;;;;30.77;nan;95416.75;5078091;28;20206;-71
2022/06/03 09:03:24;;;;;;;12.82;5.43;;;;;;;30.98;nan;95417.03;5078000;28;20654;-68
2022/06/03 09:05:59;;;;;;;10.93;5.90;;;;;;;31.45;nan;95422.31;5076430;28;20213;-68
2022/06/03 09:08:34;;;;;;;15.15;8.13;;;;;;;31.82;nan;95425.31;5078263;28;20194;-68
2022/06/03 09:11:04;;;;;;;9.82;6.80;;;;;;;31.11;nan;95406.03;5078843;28;20282;-67
2022/06/03 09:13:40;;;;;;;16.67;7.68;;;;;;;30.98;nan;95419.66;5077581;28;20206;-66
2022/06/03 09:16:11;;;;;;;12.75;8.95;;;;;;;30.75;nan;95421.34;5078202;28;20205;-65
2022/06/03 09:18:42;;;;;;;10.95;6.32;;;;;;;30.08;nan;95431.16;5078220;28;20189;-68
2022/06/03 09:21:13;;;;;;;7.22;5.68;;;;;;;29.73;nan;95438.25;5077798;28;20205;-66
2022/06/03 09:23:43;;;;;;;8.13;5.07;;;;;;;28.84;nan;95443.06;5077610;28;20204;-67
2022/06/03 09:26:18;;;;;;;5.65;5.15;;;;;;;28.89;nan;95440.81;5078299;28;20298;-68
2022/06/03 09:28:47;;;;;;;7.82;5.32;;;;;;;28.88;nan;95433.94;5077892;28;20320;-67
2022/06/03 09:31:14;;;;;;;11.45;5.40;;;;;;;28.86;nan;95441.09;5077908;28;20773;-66
2022/06/03 09:33:45;;;;;;;6.13;5.45;;;;;;;28.86;nan;95440.28;5076915;28;20201;-67
2022/06/03 09:36:18;;;;;;;13.13;7.78;;;;;;;29.05;nan;95440.06;5078135;28;20217;-69
2022/06/03 09:38:49;;;;;;;4.90;4.35;;;;;;;28.89;nan;95437.38;5077233;28;20724;-66
2022/06/03 09:41:18;;;;;;;7.35;3.67;;;;;;;28.54;nan;95436.44;5077023;28;20198;-67
2022/06/03 09:43:50;;;;;;;9.10;4.50;;;;;;;28.29;nan;95438.03;5077591;28;20194;-69
2022/06/03 09:46:18;;;;;;;10.15;5.80;;;;;;;28.27;nan;95437.34;5078188;28;20204;-69
2022/06/03 09:48:45;;;;;;;4.53;3.17;;;;;;;28.37;nan;95443.34;5077403;28;20190;-69
2022/06/03 09:51:19;;;;;;;4.45;3.72;;;;;;;28.03;nan;95431.88;5077755;28;20245;-67
2022/06/03 09:53:47;;;;;;;5.40;4.93;;;;;;;28.20;nan;95438.94;5076983;28;20205;-67
2022/06/03 09:56:22;;;;;;;7.45;4.50;;;;;;;28.45;nan;95429.53;5077443;28;20190;-68
2022/06/03 09:58:55;;;;;;;20.52;16.63;;;;;;;28.31;nan;95427.44;5076664;28;20209;-67
2022/06/03 10:01:22;;;;;;;8.95;6.95;;;;;;;28.38;nan;95433.69;5077386;28;20312;-66
2022/06/03 10:03:51;;;;;;;7.47;4.60;;;;;;;28.34;nan;95427.94;5077559;28;20224;-70
2022/06/03 10:14:33;;;;;;;9.68;6.07;;;;;;;28.14;nan;95425.63;5075786;28;20262;-70
2022/06/03 10:17:00;;;;;;;10.30;6.35;;;;;;;28.23;nan;95433.41;5076182;28;20201;-67
2022/06/03 10:19:27;;;;;;;6.13;5.13;;;;;;;28.41;nan;95425.56;5076122;28;20201;-67
2022/06/03 10:21:56;;;;;;;11.30;6.85;;;;;;;28.67;nan;95422.97;5075834;28;20202;-68
2022/06/03 10:24:30;;;;;;;5.30;4.85;;;;;;;28.77;nan;95426.28;5075234;28;20463;-67
2022/06/03 10:27:00;;;;;;;5.70;3.70;;;;;;;29.15;nan;95434.72;5076642;28;20198;-66
2022/06/03 10:29:29;;;;;;;5.75;4.15;;;;;;;29.57;nan;95430.34;5076928;28;20252;-66
2022/06/03 10:32:00;;;;;;;5.55;4.95;;;;;;;29.76;nan;95430.06;5077324;28;20627;-70
2022/06/03 10:34:32;;;;;;;8.85;4.82;;;;;;;29.98;nan;95425.22;5077150;28;20201;-67
2022/06/03 10:37:02;;;;;;;6.68;4.75;;;;;;;30.14;nan;95425.28;5076547;28;20221;-68
2022/06/03 10:39:30;;;;;;;8.20;5.22;;;;;;;30.64;nan;95424.31;5076789;28;20657;-67
2022/06/03 10:41:59;;;;;;;6.15;4.93;;;;;;;30.75;nan;95418.72;5076890;28;20652;-69
2022/06/03 10:44:29;;;;;;;17.95;6.85;;;;;;;30.59;nan;95426.63;5076905;28;20205;-67
2022/06/03 10:46:59;;;;;;;13.82;9.05;;;;;;;30.56;nan;95417.28;5077208;28;20206;-69
2022/06/03 10:49:29;;;;;;;10.38;6.90;;;;;;;30.65;nan;95423.34;5076828;28;20293;-67
2022/06/03 11:03:06;;;;;;;7.70;4.38;;;;;;;30.28;nan;95401.03;5075737;28;20703;-68
2022/06/03 11:05:36;;;;;;;6.65;5.55;;;;;;;30.11;nan;95400.22;5077164;28;20205;-67
2022/06/03 11:08:07;;;;;;;4.60;4.20;;;;;;;29.89;nan;95392.13;5076083;28;20205;-66
2022/06/03 11:10:41;;;;;;;86.18;55.92;;;;;;;30.23;nan;95382.34;5076160;28;20293;-67
2022/06/03 11:13:10;;;;;;;6.13;3.97;;;;;;;29.81;nan;95389.47;5076027;28;20732;-69
2022/06/03 11:15:40;;;;;;;4.03;3.58;;;;;;;29.57;nan;95388.44;5076782;28;20201;-67
2022/06/03 11:18:19;;;;;;;5.25;4.72;;;;;;;29.28;nan;95386.19;5076293;28;20209;-66
2022/06/03 11:20:50;;;;;;;6.47;4.20;;;;;;;29.69;nan;95381.13;5075944;28;20334;-68
2022/06/03 11:23:17;;;;;;;6.35;4.10;;;;;;;29.64;nan;95365.88;5076568;28;20208;-67
2022/06/03 11:25:47;;;;;;;6.30;4.75;;;;;;;29.68;nan;95372.44;5076720;28;20256;-66
2022/06/03 11:28:19;;;;;;;5.95;4.13;;;;;;;29.91;nan;95366.59;5076093;28;20198;-68
2022/06/03 11:30:51;;;;;;;7.38;5.05;;;;;;;30.05;nan;95365.97;5076672;28;20194;-66
2022/06/03 11:33:24;;;;;;;5.95;4.43;;;;;;;29.91;nan;95374.44;5075517;28;20679;-65
2022/06/03 11:35:55;;;;;;;11.55;5.50;;;;;;;29.79;nan;95366.06;5076295;28;20198;-68
2022/06/03 11:38:29;;;;;;;10.18;7.47;;;;;;;30.16;nan;95357.78;5075701;28;20705;-66
2022/06/03 11:41:02;;;;;;;4.90;4.60;;;;;;;30.12;nan;95364.31;5075346;28;20233;-68
2022/06/03 11:43:35;;;;;;;6.03;4.35;;;;;;;30.00;nan;95353.34;5075684;28;20205;-67
2022/06/03 11:46:05;;;;;;;8.75;4.43;;;;;;;30.16;nan;95352.53;5076536;28;20208;-67
2022/06/03 11:48:37;;;;;;;5.20;4.80;;;;;;;29.85;nan;95354.94;5075352;28;20210;-69
2022/06/03 11:51:05;;;;;;;7.20;3.83;;;;;;;29.77;nan;95353.13;5076118;28;20204;-71
2022/06/03 11:53:34;;;;;;;4.82;4.30;;;;;;;29.89;nan;95351.03;5075547;28;20346;-69
2022/06/03 11:56:05;;;;;;;6.13;3.10;;;;;;;29.77;nan;95353.13;5075940;28;20868;-67
2022/06/03 11:58:46;;;;;;;6.03;4.65;;;;;;;30.27;nan;95348.75;5076018;28;20205;-69
2022/06/03 12:01:18;;;;;;;4.40;4.00;;;;;;;30.49;nan;95347.25;5075595;28;20278;-65
2022/06/03 12:03:51;;;;;;;9.88;5.85;;;;;;;30.57;nan;95339.41;5076312;28;20547;-66
2022/06/03 12:06:24;;;;;;;4.57;4.28;;;;;;;30.90;nan;95340.97;5076866;28;21257;-69
2022/06/03 12:08:57;;;;;;;6.05;5.00;;;;;;;31.15;nan;95340.91;5076540;28;20202;-67
2022/06/03 12:14:33;;;;;;;6.28;4.28;;;;;;;31.39;nan;95331.09;5079573;28;20209;-66
2022/06/03 12:17:19;;;;;;;6.38;3.80;;;;;;;31.19;nan;95337.75;5079100;28;20201;-66
2022/06/03 12:19:47;;;;;;;6.82;3.42;;;;;;;30.72;nan;95340.34;5079985;28;20202;-67
2022/06/03 12:22:43;;;;;;;4.05;3.75;;;;;;;30.51;nan;95340.03;5079217;28;20201;-69
2022/06/03 12:25:44;;;;;;;5.85;3.75;;;;;;;30.28;nan;95338.09;5079338;28;20663;-66
2022/06/03 12:28:21;;;;;;;5.07;3.60;;;;;;;29.78;nan;95333.81;5076531;28;20217;-66
2022/06/03 12:30:51;;;;;;;4.20;3.80;;;;;;;29.45;nan;95343.41;5079493;28;20307;-68
2022/06/03 12:33:25;;;;;;;8.10;3.58;;;;;;;29.45;nan;95345.19;5079163;28;20290;-67
2022/06/03 12:36:35;;;;;;;3.97;3.67;;;;;;;29.59;nan;95347.22;5079387;28;20205;-68
2022/06/03 12:39:23;;;;;;;8.65;4.43;;;;;;;29.59;nan;95349.00;5069872;28;20208;-69
2022/06/03 12:42:12;;;;;;;4.40;4.00;;;;;;;29.47;nan;95351.09;5078939;28;20209;-67
2022/06/03 12:45:32;;;;;;;7.18;4.18;;;;;;;29.03;nan;95338.16;5079462;28;20885;-66
2022/06/03 12:47:58;;;;;;;6.93;4.20;;;;;;;29.14;nan;95349.34;5078899;28;20299;-67
2022/06/03 12:50:37;;;;;;;5.85;4.93;;;;;;;29.16;nan;95336.91;5078771;28;20885;-67
2022/06/03 12:53:32;;;;;;;4.75;4.38;;;;;;;29.13;nan;95332.81;5078851;28;20233;-70
2022/06/03 12:56:02;;;;;;;8.90;5.22;;;;;;;28.98;nan;95335.19;5079237;28;20202;-69
2022/06/03 12:58:41;;;;;;;6.43;4.50;;;;;;;28.78;nan;95333.75;5078575;28;20285;-67
2022/06/03 13:01:11;;;;;;;9.25;4.88;;;;;;;28.66;nan;95345.50;5078777;28;20201;-67
2022/06/03 13:03:43;;;;;;;7.13;4.18;;;;;;;28.42;nan;95340.94;5079046;28;20216;-67
2022/06/03 13:06:10;;;;;;;5.78;4.90;;;;;;;28.57;nan;95352.47;5078897;28;20210;-67
2022/06/03 13:11:42;;;;;;;7.25;4.53;;;;;;;29.00;nan;95348.94;5043146;28;20282;-67
2022/06/03 13:14:19;;;;;;;7.88;5.03;;;;;;;29.26;nan;95341.03;5079027;28;20740;-67
2022/06/03 13:16:49;;;;;;;5.15;4.55;;;;;;;29.41;nan;95342.09;5078480;28;20197;-67
2022/06/03 13:19:57;;;;;;;14.38;4.72;;;;;;;29.29;nan;95342.50;5078562;28;20230;-67
2022/06/03 13:22:51;;;;;;;5.63;4.90;;;;;;;28.95;nan;95347.78;5078270;28;20198;-69
2022/06/03 13:25:28;;;;;;;8.43;4.75;;;;;;;28.93;nan;95347.94;5074294;28;20749;-67
2022/06/03 13:28:33;;;;;;;6.05;4.35;;;;;;;29.05;nan;95346.69;5077976;28;20197;-67
2022/06/03 13:31:19;;;;;;;7.20;4.88;;;;;;;29.32;nan;95339.56;5078451;28;20205;-67
2022/06/03 13:34:19;;;;;;;8.38;4.82;;;;;;;29.37;nan;95339.94;5078215;28;20616;-69
2022/06/03 13:37:16;;;;;;;7.30;5.25;;;;;;;29.44;nan;95339.16;5078278;28;20217;-69
2022/06/03 13:40:19;;;;;;;8.82;4.80;;;;;;;29.56;nan;95339.66;5078728;28;20660;-66